createdAt,value
2023-03-01T00:01:36.988Z,101521.55
2023-03-01T00:05:23.068Z,101530.48
2023-03-01T00:08:59.814Z,101532.08
2023-03-01T00:12:38.522Z,101535.11
2023-03-01T00:16:14.100Z,101532.92
2023-03-01T00:19:50.447Z,101527.11
2023-03-01T00:23:23.143Z,101525.34
2023-03-01T00:26:55.278Z,101525.59
2023-03-01T00:30:19.984Z,101516.02
2023-03-01T00:33:44.541Z,101508.29
2023-03-01T00:37:18.155Z,101506.29
2023-03-01T00:40:55.026Z,101511.34
2023-03-01T00:44:33.646Z,101505.85
2023-03-01T00:48:10.985Z,101501.55
2023-03-01T00:51:46.558Z,101493.29
2023-03-01T00:55:25.040Z,101483.88
2023-03-01T00:58:59.999Z,101477.16
2023-03-01T01:02:38.326Z,101471.55
2023-03-01T01:06:13.284Z,101467.17
2023-03-01T01:09:52.670Z,101464.25
2023-03-01T01:13:29.236Z,101458.10
2023-03-01T01:17:08.238Z,101450.76
2023-03-01T01:20:46.261Z,101446.74
2023-03-01T01:24:25.155Z,101445.14
2023-03-01T01:28:00.223Z,101451.64
2023-03-01T01:31:39.044Z,101455.02
2023-03-01T01:35:14.034Z,101445.77
2023-03-01T01:38:52.547Z,101443.81
2023-03-01T01:42:28.254Z,101446.13
2023-03-01T01:46:07.168Z,101433.56
2023-03-01T01:49:42.070Z,101427.27
2023-03-01T01:53:21.380Z,101420.13
2023-03-01T01:56:57.509Z,101413.54
2023-03-01T02:00:35.977Z,101409.12
2023-03-01T02:04:11.169Z,101403.40
2023-03-01T02:07:52.433Z,101398.14
2023-03-01T02:11:27.202Z,101396.91
2023-03-01T02:15:08.182Z,101407.69
2023-03-01T02:18:43.052Z,101412.60
2023-03-01T02:22:22.796Z,101396.61
2023-03-01T02:25:58.398Z,101382.20
2023-03-01T02:29:38.480Z,101389.89
2023-03-01T02:33:14.446Z,101385.84
2023-03-01T02:36:53.220Z,101378.80
2023-03-01T02:40:28.562Z,101382.52
2023-03-01T02:44:07.391Z,101372.27
2023-03-01T02:47:43.516Z,101355.21
2023-03-01T02:51:22.027Z,101340.83
2023-03-01T02:54:57.130Z,101335.52
2023-03-01T02:58:36.198Z,101321.39
2023-03-01T03:02:11.120Z,101307.09
2023-03-01T03:05:48.358Z,101301.17
2023-03-01T03:09:27.491Z,101291.54
2023-03-01T03:13:03.347Z,101290.55
2023-03-01T03:16:42.069Z,101297.74
2023-03-01T03:20:17.454Z,101282.95
2023-03-01T03:23:58.328Z,101281.42
2023-03-01T03:27:34.223Z,101275.84
2023-03-01T03:31:14.685Z,101270.33
2023-03-01T03:34:52.383Z,101255.68
2023-03-01T03:38:31.812Z,101268.88
2023-03-01T03:42:07.650Z,101268.63
2023-03-01T03:45:46.096Z,101272.29
2023-03-01T03:49:22.480Z,101274.77
2023-03-01T03:53:01.290Z,101279.80
2023-03-01T03:56:36.143Z,101283.15
2023-03-01T04:00:15.848Z,101276.29
2023-03-01T04:03:51.302Z,101264.36
2023-03-01T04:07:33.812Z,101267.45
2023-03-01T04:11:12.384Z,101261.81
2023-03-01T04:14:49.028Z,101260.80
2023-03-01T04:18:27.768Z,101263.86
2023-03-01T04:22:02.482Z,101256.05
2023-03-01T04:25:41.137Z,101260.40
2023-03-01T04:29:16.350Z,101262.27
2023-03-01T04:32:55.068Z,101254.45
2023-03-01T04:36:31.148Z,101251.08
2023-03-01T04:40:10.578Z,101255.06
2023-03-01T04:43:45.308Z,101246.08
2023-03-01T04:47:22.158Z,101247.01
2023-03-01T04:50:57.342Z,101247.33
2023-03-01T04:54:36.197Z,101248.63
2023-03-01T04:58:11.795Z,101250.45
2023-03-01T05:01:50.386Z,101245.55
2023-03-01T05:05:24.898Z,101241.98
2023-03-01T05:09:23.473Z,101244.59
2023-03-01T05:12:58.778Z,101249.83
2023-03-01T05:16:37.259Z,101236.05
2023-03-01T05:20:11.011Z,101247.87
2023-03-01T05:23:49.957Z,101248.95
2023-03-01T05:27:25.715Z,101250.40
2023-03-01T05:31:05.433Z,101258.10
2023-03-01T05:34:40.932Z,101261.95
2023-03-01T05:38:19.717Z,101266.52
2023-03-01T05:41:54.643Z,101267.52
2023-03-01T05:45:37.179Z,101270.34
2023-03-01T05:49:12.728Z,101271.04
2023-03-01T05:52:49.079Z,101276.15
2023-03-01T05:56:24.527Z,101276.77
2023-03-01T06:00:03.384Z,101272.63
2023-03-01T06:03:39.068Z,101280.55
2023-03-01T06:07:18.219Z,101280.59
2023-03-01T06:10:55.060Z,101283.48
2023-03-01T06:14:34.227Z,101282.26
2023-03-01T06:18:15.707Z,101275.87
2023-03-01T06:21:52.307Z,101261.84
2023-03-01T06:25:30.748Z,101255.73
2023-03-01T06:29:11.916Z,101257.19
2023-03-01T06:32:50.467Z,101252.70
2023-03-01T06:36:27.080Z,101256.96
2023-03-01T06:40:06.983Z,101252.09
2023-03-01T06:43:43.201Z,101244.14
2023-03-01T06:47:23.142Z,101245.66
2023-03-01T06:51:01.298Z,101242.17
2023-03-01T06:54:41.169Z,101242.01
2023-03-01T06:58:21.361Z,101247.05
2023-03-01T07:02:01.148Z,101242.29
2023-03-01T07:05:38.316Z,101246.25
2023-03-01T07:09:17.993Z,101246.67
2023-03-01T07:12:55.339Z,101250.65
2023-03-01T07:16:36.243Z,101252.38
2023-03-01T07:20:13.252Z,101249.08
2023-03-01T07:23:53.108Z,101249.73
2023-03-01T07:27:31.236Z,101258.02
2023-03-01T07:31:11.134Z,101264.06
2023-03-01T07:34:49.406Z,101261.23
2023-03-01T07:38:29.296Z,101250.63
2023-03-01T07:42:06.224Z,101254.63
2023-03-01T07:45:46.397Z,101256.14
2023-03-01T07:49:23.254Z,101250.52
2023-03-01T07:53:03.116Z,101247.12
2023-03-01T07:56:41.010Z,101244.08
2023-03-01T12:53:49.846Z,101236.83
2023-03-01T12:56:39.733Z,101229.98
2023-03-01T12:59:32.907Z,101232.80
2023-03-01T13:03:15.415Z,101234.55
2023-03-01T13:06:43.667Z,101236.64
2023-03-01T13:09:36.342Z,101240.66
2023-03-01T13:13:02.247Z,101241.25
2023-03-01T13:15:54.800Z,101241.02
2023-03-01T13:18:45.007Z,101241.70
2023-03-01T13:21:34.157Z,101235.79
2023-03-01T13:24:42.329Z,101235.95
2023-03-01T13:27:33.333Z,101241.40
2023-03-01T13:30:34.712Z,101240.65
2023-03-01T13:33:35.298Z,101244.09
2023-03-01T13:36:31.420Z,101242.61
2023-03-01T13:39:39.822Z,101245.55
2023-03-01T13:42:33.448Z,101242.65
2023-03-01T13:45:31.614Z,101239.42
2023-03-01T13:48:28.909Z,101238.63
2023-03-01T13:51:22.643Z,101239.25
2023-03-01T13:54:12.503Z,101238.34
2023-03-01T13:57:04.396Z,101239.48
2023-03-01T13:59:53.447Z,101238.71
2023-03-01T14:02:44.733Z,101241.36
2023-03-01T14:05:34.506Z,101237.87
2023-03-01T14:08:28.942Z,101242.02
2023-03-01T14:11:26.141Z,101240.90
2023-03-01T14:14:53.278Z,101241.68
2023-03-01T14:17:45.129Z,101240.35
2023-03-01T14:20:48.358Z,101240.02
2023-03-01T14:23:39.287Z,101246.26
2023-03-01T14:26:28.597Z,101246.96
2023-03-01T14:29:27.114Z,101245.88
2023-03-01T14:32:25.255Z,101250.02
2023-03-01T14:35:22.163Z,101245.08
2023-03-01T14:38:22.318Z,101244.42
2023-03-01T14:41:16.795Z,101247.17
2023-03-01T14:44:08.854Z,101247.88
2023-03-01T14:47:03.280Z,101242.97
2023-03-01T14:49:54.879Z,101242.85
2023-03-01T14:52:45.932Z,101242.02
2023-03-01T14:55:42.153Z,101243.21
2023-03-01T14:58:33.468Z,101242.18
2023-03-01T15:01:22.644Z,101240.67
2023-03-01T15:04:13.590Z,101240.98
2023-03-01T15:07:06.222Z,101244.16
2023-03-01T15:09:55.392Z,101243.69
2023-03-01T15:12:44.859Z,101243.54
2023-03-01T15:15:39.368Z,101243.95
2023-03-01T15:18:36.293Z,101248.77
2023-03-01T15:21:32.091Z,101251.59
2023-03-01T15:24:25.416Z,101251.20
2023-03-01T15:27:19.667Z,101252.50
2023-03-01T15:30:18.922Z,101260.67
2023-03-01T15:33:21.844Z,101262.50
2023-03-01T15:36:46.876Z,101266.16
2023-03-01T15:39:40.293Z,101267.52
2023-03-01T15:42:29.672Z,101267.19
2023-03-01T15:45:24.535Z,101267.73
2023-03-01T15:48:19.170Z,101271.13
2023-03-01T15:51:11.337Z,101272.57
2023-03-01T15:54:23.127Z,101272.82
2023-03-01T15:57:14.629Z,101270.44
2023-03-01T16:00:12.265Z,101269.25
2023-03-01T16:03:02.200Z,101273.94
2023-03-01T16:05:52.010Z,101272.07
2023-03-01T16:08:42.168Z,101277.65
2023-03-01T16:11:33.566Z,101280.85
2023-03-01T16:14:23.041Z,101280.72
2023-03-01T16:17:12.206Z,101282.63
2023-03-01T16:20:01.168Z,101282.17
2023-03-01T16:22:50.390Z,101283.62
2023-03-01T16:25:41.048Z,101285.69
2023-03-01T16:28:30.530Z,101286.88
2023-03-01T16:31:20.356Z,101284.80
2023-03-01T16:34:13.361Z,101288.31
2023-03-01T16:37:03.900Z,101290.06
2023-03-01T16:39:54.062Z,101287.06
2023-03-01T16:42:43.232Z,101291.23
2023-03-01T16:45:37.968Z,101298.83
2023-03-01T16:48:27.676Z,101297.56
2023-03-01T16:51:21.851Z,101299.08
2023-03-01T16:54:11.903Z,101300.73
2023-03-01T16:57:01.225Z,101304.77
2023-03-01T16:59:54.781Z,101306.66
2023-03-01T17:02:45.845Z,101307.70
2023-03-01T17:05:35.275Z,101303.64
2023-03-01T17:08:25.819Z,101300.41
2023-03-01T17:11:17.426Z,101295.38
2023-03-01T17:14:06.419Z,101295.29
2023-03-01T17:16:55.613Z,101293.55
2023-03-01T17:19:44.737Z,101293.09
2023-03-01T17:22:34.285Z,101295.05
2023-03-01T17:25:23.642Z,101293.63
2023-03-01T17:28:13.791Z,101293.62
2023-03-01T17:31:03.671Z,101293.46
2023-03-01T17:33:52.688Z,101294.92
2023-03-01T17:36:44.284Z,101295.10
2023-03-01T17:39:36.354Z,101289.21
2023-03-01T17:42:25.756Z,101292.13
2023-03-01T17:45:14.854Z,101298.20
2023-03-01T17:48:04.578Z,101295.64
2023-03-01T17:51:13.599Z,101294.02
2023-03-01T17:54:04.057Z,101292.52
2023-03-01T17:56:53.585Z,101299.03
2023-03-01T17:59:43.001Z,101298.71
2023-03-01T18:02:32.788Z,101297.58
2023-03-01T18:05:23.218Z,101294.11
2023-03-01T18:08:13.536Z,101294.58
2023-03-01T18:11:02.761Z,101295.41
2023-03-01T18:13:51.940Z,101298.76
2023-03-01T18:16:41.028Z,101298.89
2023-03-01T18:19:32.660Z,101295.73
2023-03-01T18:22:22.049Z,101297.55
2023-03-01T18:25:12.545Z,101302.30
2023-03-01T18:28:02.592Z,101305.79
2023-03-01T18:30:57.804Z,101307.05
2023-03-01T18:33:47.042Z,101312.77
2023-03-01T18:36:38.369Z,101317.02
2023-03-01T18:39:28.775Z,101323.77
2023-03-01T18:42:20.533Z,101323.38
2023-03-01T18:45:10.669Z,101324.81
2023-03-01T18:48:04.477Z,101322.76
2023-03-01T18:50:53.803Z,101325.91
2023-03-01T18:53:47.881Z,101331.44
2023-03-01T18:56:37.159Z,101331.59
2023-03-01T18:59:26.213Z,101331.47
2023-03-01T19:02:15.854Z,101334.56
2023-03-01T19:05:09.451Z,101334.77
2023-03-01T19:07:58.969Z,101330.90
2023-03-01T19:10:56.047Z,101336.83
2023-03-01T19:13:45.652Z,101340.20
2023-03-01T19:16:40.638Z,101339.29
2023-03-01T19:19:29.949Z,101345.50
2023-03-01T19:22:19.329Z,101347.13
2023-03-01T19:25:08.966Z,101351.08
2023-03-01T19:27:58.323Z,101348.07
2023-03-01T19:30:47.690Z,101350.52
2023-03-01T19:33:37.412Z,101351.09
2023-03-01T19:36:33.484Z,101352.44
2023-03-01T19:39:22.694Z,101352.60
2023-03-01T19:42:12.229Z,101351.10
2023-03-01T19:45:07.834Z,101354.48
2023-03-01T19:47:57.799Z,101357.54
2023-03-01T19:50:46.990Z,101358.76
2023-03-01T19:53:38.290Z,101353.63
2023-03-01T19:56:27.658Z,101351.16
2023-03-01T19:59:24.579Z,101351.48
2023-03-01T20:02:13.816Z,101352.86
2023-03-01T20:05:02.808Z,101353.33
2023-03-01T20:07:57.398Z,101354.57
2023-03-01T20:10:46.279Z,101353.27
2023-03-01T20:13:35.866Z,101357.78
2023-03-01T20:16:27.009Z,101356.30
2023-03-01T20:19:16.576Z,101351.66
2023-03-01T20:22:05.685Z,101346.15
2023-03-01T20:24:54.835Z,101346.95
2023-03-01T20:27:47.719Z,101343.44
2023-03-01T20:30:38.741Z,101350.71
2023-03-01T20:33:27.812Z,101352.69
2023-03-01T20:36:17.582Z,101354.13
2023-03-01T20:39:09.829Z,101359.05
2023-03-01T20:41:58.442Z,101362.90
2023-03-01T20:44:48.170Z,101370.64
2023-03-01T20:47:38.216Z,101373.38
2023-03-01T20:50:28.107Z,101376.77
2023-03-01T20:53:17.584Z,101377.98
2023-03-01T20:56:08.396Z,101373.17
2023-03-01T20:59:00.482Z,101369.41
2023-03-01T21:01:49.900Z,101369.89
2023-03-01T21:04:39.194Z,101374.54
2023-03-01T21:07:28.304Z,101371.39
2023-03-01T21:10:17.548Z,101368.48
2023-03-01T21:13:07.706Z,101369.35
2023-03-01T21:15:59.967Z,101368.70
2023-03-01T21:18:49.320Z,101363.86
2023-03-01T21:21:38.441Z,101365.32
2023-03-01T21:24:27.520Z,101368.91
2023-03-01T21:27:16.712Z,101367.71
2023-03-01T21:30:06.595Z,101359.96
2023-03-01T21:32:56.977Z,101354.70
2023-03-01T21:35:46.001Z,101359.88
2023-03-01T21:38:43.017Z,101356.81
2023-03-01T21:41:33.833Z,101360.56
2023-03-01T21:44:24.684Z,101359.44
2023-03-01T21:47:13.771Z,101355.08
2023-03-01T21:50:02.731Z,101358.94
2023-03-01T21:52:51.623Z,101362.95
2023-03-01T21:55:47.179Z,101366.83
2023-03-01T21:58:36.084Z,101362.14
2023-03-01T22:01:27.362Z,101360.55
2023-03-01T22:04:16.680Z,101355.96
2023-03-01T22:07:06.186Z,101352.17
2023-03-01T22:09:55.228Z,101356.23
2023-03-01T22:12:46.184Z,101356.95
2023-03-01T22:15:35.238Z,101356.59
2023-03-01T22:18:24.675Z,101351.40
2023-03-01T22:21:13.873Z,101349.71
2023-03-01T22:24:04.043Z,101352.83
2023-03-01T22:26:54.998Z,101356.42
2023-03-01T22:29:43.992Z,101359.70
2023-03-01T22:32:33.660Z,101365.20
2023-03-01T22:35:22.765Z,101371.69
2023-03-01T22:38:12.297Z,101367.25
2023-03-01T22:41:04.763Z,101371.03
2023-03-01T22:43:54.372Z,101368.20
2023-03-01T22:46:45.548Z,101364.27
2023-03-01T22:49:35.026Z,101364.62
2023-03-01T22:52:24.117Z,101364.58
2023-03-01T22:55:13.693Z,101366.65
2023-03-01T22:58:02.695Z,101370.34
2023-03-01T23:00:52.056Z,101375.08
2023-03-01T23:03:41.208Z,101373.30
2023-03-01T23:06:31.210Z,101376.96
2023-03-01T23:09:30.881Z,101366.93
2023-03-01T23:12:19.566Z,101367.14
2023-03-01T23:15:10.508Z,101369.20
2023-03-01T23:17:59.725Z,101365.61
2023-03-01T23:20:48.844Z,101360.79
2023-03-01T23:23:38.548Z,101355.96
2023-03-01T23:26:28.093Z,101355.19
2023-03-01T23:29:17.212Z,101358.08
2023-03-01T23:32:06.264Z,101358.65
2023-03-01T23:34:55.395Z,101360.46
2023-03-01T23:37:45.575Z,101364.36
2023-03-01T23:40:34.608Z,101364.83
2023-03-01T23:43:23.794Z,101366.04
2023-03-01T23:46:14.512Z,101366.36
2023-03-01T23:49:04.714Z,101361.54
2023-03-01T23:51:53.842Z,101357.09
2023-03-01T23:54:43.666Z,101358.20
2023-03-01T23:57:34.523Z,101355.23
